Erwin, North Carolina
Current Conditions -  °F | °C
As of 8:55 AM on Thursday 30 Oct 2014 (Local Time) from KHRJ Reporting Station
Clear Clear  
Wind Chill: 56°   Ceiling: Unl
Heat Index: 56°   Visibility: 10mi
Dew Point: 51°   Wind: 3mph
Humidity: 82%   Direction: 10°N
Pressure: 30.05"   Gusts: NA
Location:  35.33°N, 78.68°W
Report Text: KHRJ 301255Z AUTO 01003KT 10SM CLR 14/10 A3005 RMK AO2 T01350104
Loading
Personal Weather Stations






























Interactive Weather Map
Tropical Storm Tracking
New forecast layout! Learn more

10-Day Weather Forecast

Advertisements
Track Severe Weather on mobile